Time;durP1;ratioP1;P1;durP2;ratioP2;P2;SDS_P1;SDS_P2;PMS_P1;PMS_P2;Temp;Humidity;BMP_temperature;BMP_pressure;BME280_temperature;BME280_humidity;BME280_pressure;Samples;Min_cycle;Max_cycle;Signal;HPM_P1;HPM_P2
2023/10/10 00:01:07;;;;;;;10.20;5.13;;;15.10;99.90;;;;;;5053128;28;20170;-84
2023/10/10 00:03:39;;;;;;;11.40;5.13;;;15.10;99.90;;;;;;5053927;28;20065;-83
2023/10/10 00:06:09;;;;;;;12.80;5.15;;;15.00;99.90;;;;;;5060062;28;20051;-84
2023/10/10 00:08:40;;;;;;;12.75;4.68;;;15.00;99.90;;;;;;5057745;28;20073;-83
2023/10/10 00:11:10;;;;;;;16.17;5.60;;;15.00;99.90;;;;;;5059113;28;20079;-84
2023/10/10 00:13:42;;;;;;;11.50;5.60;;;15.00;99.90;;;;;;5046157;28;20067;-84
2023/10/10 00:16:19;;;;;;;10.38;5.45;;;15.00;99.90;;;;;;5056946;28;20056;-84
2023/10/10 00:18:46;;;;;;;8.60;4.70;;;15.00;99.90;;;;;;5056306;28;20142;-84
2023/10/10 00:21:22;;;;;;;11.65;5.63;;;15.00;99.90;;;;;;5053829;28;20515;-82
2023/10/10 00:23:49;;;;;;;11.57;5.68;;;15.00;99.90;;;;;;5056472;28;20114;-84
2023/10/10 00:26:19;;;;;;;10.27;4.68;;;15.00;99.90;;;;;;5056005;28;20056;-83
2023/10/10 00:28:46;;;;;;;7.90;4.93;;;14.90;99.90;;;;;;5055905;28;20139;-83
2023/10/10 00:31:17;;;;;;;7.85;4.65;;;14.90;99.90;;;;;;5056135;28;20496;-84
2023/10/10 00:33:45;;;;;;;12.43;6.25;;;14.90;99.90;;;;;;5038429;28;20401;-84
2023/10/10 00:36:21;;;;;;;11.18;6.20;;;14.90;99.90;;;;;;5045401;28;20107;-84
2023/10/10 00:38:51;;;;;;;16.63;5.97;;;14.90;99.90;;;;;;5055565;28;20056;-83
2023/10/10 00:41:16;;;;;;;17.42;6.65;;;15.00;99.90;;;;;;5048442;28;20045;-84
2023/10/10 00:43:42;;;;;;;10.90;5.10;;;15.00;99.90;;;;;;5054765;28;20052;-84
2023/10/10 00:46:11;;;;;;;10.15;4.13;;;14.90;99.90;;;;;;5054264;28;20041;-83
2023/10/10 00:48:38;;;;;;;11.80;6.85;;;15.00;99.90;;;;;;5056311;28;20461;-84
2023/10/10 00:51:06;;;;;;;11.43;5.90;;;14.90;99.90;;;;;;5055328;28;20095;-82
2023/10/10 00:53:36;;;;;;;17.38;7.30;;;14.90;99.90;;;;;;5055219;28;20041;-83
2023/10/10 00:56:06;;;;;;;12.95;5.10;;;15.00;99.90;;;;;;5049386;28;20046;-84
2023/10/10 00:58:36;;;;;;;9.32;5.68;;;14.90;99.90;;;;;;5031802;28;20110;-84
2023/10/10 01:01:14;;;;;;;14.57;8.43;;;14.90;99.90;;;;;;5056665;28;20103;-83
2023/10/10 01:03:42;;;;;;;11.80;8.18;;;14.90;99.90;;;;;;5044829;28;20045;-84
2023/10/10 01:06:14;;;;;;;12.88;7.57;;;14.90;99.90;;;;;;5044638;28;20086;-83
2023/10/10 01:08:53;;;;;;;15.13;8.68;;;15.00;99.90;;;;;;5050741;28;20102;-84
2023/10/10 01:11:19;;;;;;;15.93;8.52;;;14.90;99.90;;;;;;5042186;28;20077;-83
2023/10/10 01:13:46;;;;;;;12.27;6.65;;;15.00;99.90;;;;;;5050212;28;20049;-84
2023/10/10 01:16:12;;;;;;;18.73;8.55;;;14.90;99.90;;;;;;5047777;28;20082;-84
2023/10/10 01:19:02;;;;;;;12.32;6.30;;;14.90;99.90;;;;;;5025837;28;20507;-84
2023/10/10 01:21:42;;;;;;;17.48;8.48;;;14.90;99.90;;;;;;5044023;28;20107;-84
2023/10/10 01:24:08;;;;;;;18.60;8.25;;;14.90;99.90;;;;;;5047675;28;20046;-83
2023/10/10 01:26:37;;;;;;;14.23;8.27;;;14.90;99.90;;;;;;5041875;28;20160;-84
2023/10/10 01:31:52;;;;;;;13.25;8.90;;;15.00;99.90;;;;;;5037306;28;20088;-81
2023/10/10 01:34:33;;;;;;;18.17;8.50;;;14.90;99.90;;;;;;5043159;28;20052;-84
2023/10/10 01:37:02;;;;;;;15.15;7.75;;;14.90;99.90;;;;;;5044978;28;20079;-84
2023/10/10 01:39:41;;;;;;;13.32;6.10;;;14.90;99.90;;;;;;5047350;28;20045;-83
2023/10/10 01:42:11;;;;;;;17.90;8.35;;;15.00;99.90;;;;;;5042245;28;20089;-84
2023/10/10 01:44:37;;;;;;;16.23;8.55;;;14.90;99.90;;;;;;5052067;28;20048;-83
2023/10/10 01:47:03;;;;;;;13.60;6.28;;;14.90;99.90;;;;;;5041584;28;20045;-84
2023/10/10 01:49:29;;;;;;;20.52;8.40;;;15.00;99.90;;;;;;5046340;28;20396;-84
2023/10/10 01:51:56;;;;;;;17.88;9.20;;;15.00;99.90;;;;;;5036135;28;20049;-83
2023/10/10 01:54:40;;;;;;;14.73;8.02;;;15.00;99.90;;;;;;5053859;28;20044;-84
2023/10/10 01:57:07;;;;;;;13.73;7.63;;;15.00;99.90;;;;;;5051747;28;20044;-84
2023/10/10 01:59:38;;;;;;;14.40;7.13;;;15.00;99.90;;;;;;5044729;28;20116;-84
2023/10/10 02:02:13;;;;;;;16.15;7.72;;;15.00;99.90;;;;;;5052907;28;20415;-83
2023/10/10 02:04:39;;;;;;;16.35;7.70;;;15.00;99.90;;;;;;5049590;28;20092;-84
2023/10/10 02:07:23;;;;;;;14.07;7.10;;;15.00;99.90;;;;;;5042028;28;20033;-84
2023/10/10 02:10:04;;;;;;;20.20;7.57;;;15.00;99.90;;;;;;5042686;28;20044;-84
2023/10/10 02:12:33;;;;;;;12.52;7.60;;;15.00;99.90;;;;;;5038530;28;20049;-83
2023/10/10 02:15:01;;;;;;;12.77;6.97;;;15.00;99.90;;;;;;5016952;28;20041;-85
2023/10/10 02:17:30;;;;;;;15.23;6.30;;;15.00;99.90;;;;;;5043340;28;20528;-84
2023/10/10 02:25:45;;;;;;;10.93;5.80;;;15.00;99.90;;;;;;5036521;28;20049;-84
2023/10/10 02:30:45;;;;;;;13.82;6.50;;;15.10;99.90;;;;;;5043493;28;20085;-85
2023/10/10 02:35:55;;;;;;;13.13;6.78;;;15.10;99.90;;;;;;5044971;28;20068;-84
2023/10/10 02:41:21;;;;;;;11.40;6.18;;;15.10;99.90;;;;;;5042455;28;20147;-84
2023/10/10 02:46:38;;;;;;;19.65;7.20;;;15.10;99.90;;;;;;5041642;28;20374;-84
2023/10/10 02:51:57;;;;;;;14.98;5.85;;;15.10;99.90;;;;;;5036264;28;20057;-84
2023/10/10 02:54:54;;;;;;;14.68;7.43;;;15.10;99.90;;;;;;5042824;28;20049;-84
2023/10/10 02:59:59;;;;;;;16.20;7.10;;;15.10;99.90;;;;;;5039823;28;20065;-85
2023/10/10 03:02:40;;;;;;;15.98;7.90;;;15.10;99.90;;;;;;5021147;28;20033;-85
2023/10/10 03:05:14;;;;;;;12.32;5.47;;;15.10;99.90;;;;;;5043041;28;20098;-84
2023/10/10 03:07:42;;;;;;;12.10;7.03;;;15.10;99.90;;;;;;5043051;28;20396;-85
2023/10/10 03:12:37;;;;;;;10.70;6.60;;;15.00;99.90;;;;;;5052015;28;20082;-84
2023/10/10 03:17:53;;;;;;;12.25;6.38;;;15.00;99.90;;;;;;5043018;28;20041;-84
2023/10/10 03:26:04;;;;;;;15.02;7.00;;;15.10;99.90;;;;;;5044509;28;20053;-84
2023/10/10 03:28:34;;;;;;;18.95;7.45;;;15.10;99.90;;;;;;5041003;28;20049;-84
2023/10/10 03:31:24;;;;;;;11.27;7.15;;;15.10;99.90;;;;;;5045755;28;20049;-84
2023/10/10 03:34:08;;;;;;;18.48;7.10;;;15.10;99.90;;;;;;5045785;28;20059;-84
2023/10/10 03:39:42;;;;;;;13.57;7.13;;;15.10;99.90;;;;;;5039230;28;20053;-84
2023/10/10 05:23:47;;;;;;;25.30;16.55;;;15.10;99.90;;;;;;5053617;28;20473;-84
2023/10/10 05:26:14;;;;;;;31.05;17.38;;;15.10;99.90;;;;;;5054165;28;20554;-84
2023/10/10 05:28:40;;;;;;;28.08;16.63;;;15.10;99.90;;;;;;5051395;28;20392;-84
2023/10/10 05:31:09;;;;;;;34.10;20.52;;;15.00;99.90;;;;;;5047809;28;20370;-84
2023/10/10 05:33:36;;;;;;;26.15;15.40;;;15.00;99.90;;;;;;5050184;28;20048;-85
2023/10/10 05:36:09;;;;;;;24.00;15.13;;;15.00;99.90;;;;;;5050765;28;20060;-85
2023/10/10 05:38:39;;;;;;;27.98;17.42;;;15.00;99.90;;;;;;5045861;28;20040;-84
2023/10/10 05:41:06;;;;;;;21.10;12.50;;;15.00;99.90;;;;;;5051789;28;20052;-85
2023/10/10 05:43:35;;;;;;;22.60;13.65;;;15.00;99.90;;;;;;5047005;28;20105;-84
2023/10/10 05:46:05;;;;;;;27.73;16.00;;;15.00;99.90;;;;;;5048876;28;20510;-85
2023/10/10 05:48:32;;;;;;;28.88;16.05;;;15.00;99.90;;;;;;5052397;28;20053;-84
2023/10/10 05:50:59;;;;;;;31.15;17.00;;;15.00;99.90;;;;;;5043791;28;20038;-85
2023/10/10 05:53:25;;;;;;;32.00;17.95;;;14.90;99.90;;;;;;5048670;28;20442;-85
2023/10/10 05:55:58;;;;;;;28.98;18.27;;;14.90;99.90;;;;;;5047455;28;20370;-85
2023/10/10 05:58:24;;;;;;;29.83;15.40;;;14.90;99.90;;;;;;5046988;28;20041;-84
2023/10/10 06:00:53;;;;;;;24.30;13.55;;;14.90;99.90;;;;;;5051013;28;20147;-84
2023/10/10 06:03:21;;;;;;;13.38;7.32;;;14.90;99.90;;;;;;5046666;28;20049;-84
2023/10/10 06:05:49;;;;;;;16.55;10.38;;;14.80;99.90;;;;;;5043214;28;20045;-85
2023/10/10 06:08:15;;;;;;;31.27;17.90;;;14.80;99.90;;;;;;5042310;28;20049;-86
2023/10/10 06:10:42;;;;;;;25.35;16.33;;;14.80;99.90;;;;;;5055500;28;20041;-81
2023/10/10 06:13:10;;;;;;;20.60;12.88;;;14.90;99.90;;;;;;5050512;28;20045;-86
2023/10/10 06:15:36;;;;;;;29.45;17.00;;;14.90;99.90;;;;;;5052232;28;20415;-84
2023/10/10 06:18:14;;;;;;;34.55;17.40;;;14.80;99.90;;;;;;5019271;28;21721;-84
2023/10/10 06:20:41;;;;;;;32.60;18.50;;;14.80;99.90;;;;;;5054335;28;20099;-83
2023/10/10 06:23:11;;;;;;;34.40;18.17;;;14.80;99.90;;;;;;5051975;28;20440;-83
2023/10/10 06:25:38;;;;;;;29.33;17.45;;;14.80;99.90;;;;;;5052076;28;20048;-83
2023/10/10 06:28:22;;;;;;;29.13;16.63;;;14.80;99.90;;;;;;5053726;28;20045;-84
2023/10/10 06:30:52;;;;;;;27.45;17.00;;;14.80;99.90;;;;;;5051856;28;20132;-85
2023/10/10 06:33:29;;;;;;;34.53;20.02;;;14.80;99.90;;;;;;5047024;28;20412;-83
2023/10/10 06:36:25;;;;;;;39.80;21.13;;;14.80;99.90;;;;;;5036837;28;20501;-82
2023/10/10 06:41:36;;;;;;;46.35;21.45;;;14.80;99.90;;;;;;5043197;28;20049;-83
2023/10/10 06:44:04;;;;;;;36.38;22.52;;;14.90;99.90;;;;;;5047234;28;20040;-85
2023/10/10 06:46:37;;;;;;;34.97;20.55;;;14.90;99.90;;;;;;5044584;28;20492;-84
2023/10/10 06:49:05;;;;;;;37.88;21.65;;;14.90;99.90;;;;;;5053738;28;20044;-85
2023/10/10 06:51:33;;;;;;;36.80;20.20;;;14.90;99.90;;;;;;5054198;28;20076;-84
2023/10/10 06:53:59;;;;;;;36.53;21.85;;;14.90;99.90;;;;;;5046523;28;20128;-84
2023/10/10 06:59:09;;;;;;;38.00;22.13;;;15.00;99.90;;;;;;5048319;28;20509;-85
2023/10/10 07:01:35;;;;;;;31.15;20.30;;;15.00;99.90;;;;;;5048413;28;20052;-81
2023/10/10 07:04:04;;;;;;;38.40;20.70;;;14.70;99.90;;;;;;5046560;28;20122;-81
2023/10/10 07:06:30;;;;;;;31.58;20.27;;;15.10;99.90;;;;;;5045219;28;20048;-81
2023/10/10 07:11:40;;;;;;;28.98;18.48;;;15.20;99.90;;;;;;5051291;28;20044;-80
2023/10/10 07:14:09;;;;;;;31.83;19.42;;;15.20;99.90;;;;;;5053150;28;20052;-81
2023/10/10 07:16:35;;;;;;;32.97;19.65;;;15.20;99.90;;;;;;5045807;28;20064;-80
2023/10/10 07:19:19;;;;;;;34.03;20.45;;;15.20;99.90;;;;;;5049095;28;20377;-81
2023/10/10 07:21:45;;;;;;;29.48;19.75;;;15.20;99.90;;;;;;5035396;28;20052;-81
2023/10/10 07:24:14;;;;;;;28.05;17.48;;;15.30;99.90;;;;;;5050328;28;20157;-80
2023/10/10 07:26:45;;;;;;;29.83;18.55;;;15.30;99.90;;;;;;5052013;28;20053;-81
2023/10/10 07:32:15;;;;;;;31.00;19.33;;;15.40;99.90;;;;;;5032980;28;20071;-81
2023/10/10 07:34:42;;;;;;;32.38;20.60;;;15.40;99.90;;;;;;5050514;28;20044;-81
2023/10/10 07:37:09;;;;;;;36.72;20.13;;;15.50;99.90;;;;;;5046252;28;20040;-80
2023/10/10 07:39:55;;;;;;;29.27;19.27;;;15.50;99.90;;;;;;5048083;28;20048;-81
2023/10/10 07:42:27;;;;;;;37.58;20.83;;;15.50;99.90;;;;;;5032851;28;20615;-81
2023/10/10 07:45:02;;;;;;;37.00;20.65;;;15.50;99.90;;;;;;5050190;28;20154;-81
2023/10/10 07:47:32;;;;;;;36.08;22.85;;;15.50;99.90;;;;;;5050117;28;20053;-81
2023/10/10 07:49:59;;;;;;;45.10;25.02;;;15.50;99.90;;;;;;5037129;28;20125;-81
2023/10/10 07:52:26;;;;;;;39.17;24.17;;;15.50;99.90;;;;;;5049087;28;20045;-81
2023/10/10 07:54:53;;;;;;;45.00;26.52;;;15.60;99.90;;;;;;5044342;28;20524;-81
2023/10/10 07:57:22;;;;;;;51.10;27.13;;;15.60;99.90;;;;;;5049253;28;20092;-81
2023/10/10 07:59:55;;;;;;;43.45;25.52;;;15.60;99.90;;;;;;5031503;28;20155;-80
2023/10/10 08:02:24;;;;;;;38.97;25.00;;;15.70;99.90;;;;;;5001742;28;20033;-81
2023/10/10 08:05:09;;;;;;;50.50;27.13;;;15.70;99.90;;;;;;5050695;28;20548;-80
2023/10/10 08:07:35;;;;;;;47.65;27.42;;;15.80;99.90;;;;;;5050512;28;20037;-81
2023/10/10 08:10:14;;;;;;;56.08;29.13;;;15.80;99.90;;;;;;5047420;28;20479;-80
2023/10/10 08:12:42;;;;;;;49.78;27.23;;;15.80;99.90;;;;;;5049604;28;20056;-81
2023/10/10 08:15:24;;;;;;;48.17;28.55;;;15.90;99.90;;;;;;5048781;28;20481;-81
2023/10/10 08:17:54;;;;;;;49.65;28.17;;;16.00;99.90;;;;;;5050226;28;20124;-81
2023/10/10 08:23:01;;;;;;;47.92;28.63;;;16.20;99.90;;;;;;5046985;28;20128;-81
2023/10/10 08:25:28;;;;;;;45.72;27.88;;;16.20;99.90;;;;;;5049314;28;20044;-82
2023/10/10 08:27:58;;;;;;;50.60;29.08;;;16.30;99.90;;;;;;5050133;28;20041;-81
2023/10/10 08:30:27;;;;;;;50.03;31.02;;;16.40;99.90;;;;;;5050835;28;20520;-81
2023/10/10 08:32:57;;;;;;;53.92;31.83;;;16.40;99.90;;;;;;5044066;28;20092;-82
2023/10/10 08:35:23;;;;;;;50.72;31.08;;;16.40;99.90;;;;;;5051574;28;20088;-81
2023/10/10 08:37:53;;;;;;;46.97;31.85;;;16.40;99.90;;;;;;5051378;28;20078;-81
2023/10/10 08:40:22;;;;;;;58.92;33.65;;;16.50;99.90;;;;;;5053516;28;20048;-81
2023/10/10 08:42:50;;;;;;;52.97;33.92;;;16.50;99.90;;;;;;5054649;28;20045;-80
2023/10/10 08:45:22;;;;;;;57.78;35.97;;;16.60;99.90;;;;;;5053196;28;20123;-81
2023/10/10 08:48:00;;;;;;;52.50;31.95;;;16.60;99.90;;;;;;5051371;28;20501;-81
2023/10/10 08:50:32;;;;;;;55.78;35.20;;;16.70;99.90;;;;;;5053230;28;20049;-81
2023/10/10 08:53:02;;;;;;;55.05;34.22;;;16.70;99.90;;;;;;5049446;28;20128;-81
2023/10/10 08:55:28;;;;;;;51.55;32.97;;;16.80;99.90;;;;;;5052964;28;20118;-82
2023/10/10 08:57:58;;;;;;;45.97;30.45;;;16.80;99.90;;;;;;5053299;28;20041;-81
2023/10/10 09:00:27;;;;;;;50.22;32.40;;;16.90;99.90;;;;;;5054188;28;20102;-82
2023/10/10 09:02:56;;;;;;;50.38;32.55;;;16.90;99.90;;;;;;5054456;28;20041;-82
2023/10/10 09:05:24;;;;;;;56.92;33.50;;;17.00;99.90;;;;;;5053918;28;20043;-81
2023/10/10 09:07:53;;;;;;;43.80;30.25;;;17.00;99.90;;;;;;5052699;28;20041;-82
2023/10/10 09:10:28;;;;;;;52.72;33.95;;;17.00;99.90;;;;;;5053902;28;20045;-80
2023/10/10 09:12:58;;;;;;;45.97;33.13;;;17.00;99.90;;;;;;5049624;28;20049;-81
2023/10/10 09:15:27;;;;;;;48.35;30.75;;;17.00;99.90;;;;;;5035254;28;20467;-82
2023/10/10 09:18:12;;;;;;;51.70;32.85;;;17.00;99.90;;;;;;5050234;28;20060;-82
2023/10/10 09:20:44;;;;;;;47.63;31.92;;;17.00;99.90;;;;;;5034078;28;20088;-81
2023/10/10 09:23:23;;;;;;;58.42;33.25;;;17.10;99.90;;;;;;5052791;28;20045;-82
2023/10/10 09:26:09;;;;;;;55.67;33.88;;;17.10;99.90;;;;;;5049500;28;20120;-81
2023/10/10 09:28:49;;;;;;;56.08;34.28;;;17.10;99.90;;;;;;5042145;28;20052;-81
2023/10/10 09:31:31;;;;;;;52.58;32.85;;;17.20;99.90;;;;;;5050308;28;20083;-81
2023/10/10 09:34:02;;;;;;;51.70;32.15;;;17.30;99.90;;;;;;5050155;28;20094;-81
2023/10/10 09:36:28;;;;;;;53.10;32.83;;;17.40;99.90;;;;;;5020942;28;20049;-81
2023/10/10 09:39:25;;;;;;;51.95;32.83;;;17.50;99.90;;;;;;5035504;28;20569;-81
2023/10/10 09:49:52;;;;;;;48.95;33.38;;;17.70;99.90;;;;;;5037320;28;20049;-81
2023/10/10 09:55:25;;;;;;;53.17;32.70;;;17.80;99.90;;;;;;5050912;28;20053;-81
2023/10/10 10:03:36;;;;;;;46.30;29.55;;;18.20;99.90;;;;;;5050594;28;20061;-82
2023/10/10 10:12:05;;;;;;;49.33;28.85;;;18.40;99.90;;;;;;5048446;28;20048;-81
2023/10/10 10:14:47;;;;;;;44.23;28.30;;;18.50;99.90;;;;;;5045182;28;20111;-82
2023/10/10 10:17:44;;;;;;;41.92;27.23;;;18.50;99.90;;;;;;5045785;28;20459;-82
2023/10/10 10:20:20;;;;;;;43.42;27.70;;;18.60;99.90;;;;;;5053270;28;20484;-80
2023/10/10 10:22:53;;;;;;;42.22;25.77;;;18.60;99.90;;;;;;5052658;28;20049;-81
2023/10/10 10:25:25;;;;;;;43.95;27.35;;;18.70;99.90;;;;;;5036146;28;20053;-81
2023/10/10 10:28:00;;;;;;;42.42;27.42;;;18.80;99.90;;;;;;5046100;28;20067;-81
2023/10/10 10:33:04;;;;;;;39.13;24.42;;;18.90;99.90;;;;;;5048391;28;20049;-81
2023/10/10 10:35:56;;;;;;;42.55;26.08;;;19.00;99.90;;;;;;5052452;28;20048;-81
2023/10/10 10:38:31;;;;;;;38.13;24.60;;;19.20;99.90;;;;;;5051012;28;20048;-81
2023/10/10 10:41:16;;;;;;;39.80;23.27;;;19.30;99.90;;;;;;5052684;28;20099;-81
2023/10/10 10:43:49;;;;;;;36.30;21.88;;;19.40;99.90;;;;;;5052064;28;20041;-82
2023/10/10 10:46:15;;;;;;;39.60;23.35;;;19.60;99.90;;;;;;5049661;28;20047;-81
2023/10/10 10:48:54;;;;;;;36.30;22.88;;;19.70;99.90;;;;;;5052217;28;20047;-82
2023/10/10 10:51:22;;;;;;;37.20;21.25;;;19.80;99.90;;;;;;5044062;28;20056;-81
2023/10/10 10:53:56;;;;;;;36.50;21.65;;;19.90;99.90;;;;;;5033095;28;20087;-81
2023/10/10 11:01:30;;;;;;;36.80;22.35;;;20.20;99.90;;;;;;5052276;28;20055;-82
2023/10/10 11:03:56;;;;;;;35.15;22.15;;;20.30;99.90;;;;;;5051705;28;20044;-81
2023/10/10 11:06:28;;;;;;;38.20;22.33;;;20.40;99.90;;;;;;5052105;28;20045;-81
2023/10/10 11:09:08;;;;;;;35.28;21.33;;;20.50;99.90;;;;;;5035417;28;20103;-81
2023/10/10 11:14:10;;;;;;;33.70;20.20;;;20.50;99.90;;;;;;5051144;28;20053;-81
2023/10/10 11:16:45;;;;;;;37.40;22.27;;;20.50;99.90;;;;;;5047538;28;20555;-82
2023/10/10 11:21:48;;;;;;;30.52;22.27;;;20.30;99.90;;;;;;5049183;28;20060;-80
2023/10/10 11:24:29;;;;;;;34.53;23.17;;;20.30;99.90;;;;;;5049834;28;20049;-80
2023/10/10 11:29:50;;;;;;;34.53;22.98;;;20.20;99.90;;;;;;5051105;28;20417;-80
2023/10/10 11:32:25;;;;;;;;;;;20.20;99.90;;;;;;5048156;28;20045;-80
2023/10/10 11:35:17;;;;;;;28.20;20.73;;;20.30;99.90;;;;;;5044436;28;19951;-80
2023/10/10 11:37:47;;;;;;;37.42;22.58;;;20.30;99.90;;;;;;5036659;28;20044;-82
2023/10/10 11:42:48;;;;;;;33.00;21.85;;;20.60;99.90;;;;;;5049670;28;20056;-84
2023/10/10 11:45:18;;;;;;;32.20;20.60;;;20.70;99.90;;;;;;5050246;28;20079;-83
2023/10/10 11:47:45;;;;;;;27.73;19.70;;;20.70;99.90;;;;;;5046279;28;20037;-83
2023/10/10 11:50:12;;;;;;;31.63;19.65;;;20.70;99.90;;;;;;5042449;28;20077;-82
2023/10/10 11:52:52;;;;;;;26.25;18.02;;;20.70;99.90;;;;;;5047087;28;20616;-82
2023/10/10 11:55:21;;;;;;;30.08;18.23;;;20.80;99.90;;;;;;5032624;28;20053;-79
2023/10/10 11:58:07;;;;;;;30.05;18.67;;;20.80;99.90;;;;;;5039451;28;20475;-80
2023/10/10 12:00:42;;;;;;;29.48;18.33;;;20.80;99.90;;;;;;5050760;28;20120;-81
2023/10/10 12:03:34;;;;;;;30.00;17.80;;;20.90;99.90;;;;;;5048051;28;20086;-81
2023/10/10 12:06:00;;;;;;;27.08;17.42;;;20.90;99.90;;;;;;5047234;28;20546;-81
2023/10/10 12:08:28;;;;;;;23.10;17.33;;;20.90;99.90;;;;;;5047258;28;20080;-79
2023/10/10 12:11:06;;;;;;;26.60;17.27;;;20.90;99.90;;;;;;5039048;28;20078;-80
2023/10/10 12:13:33;;;;;;;26.63;17.23;;;20.90;99.90;;;;;;5050887;28;20040;-81
2023/10/10 12:16:07;;;;;;;26.95;18.50;;;21.00;99.90;;;;;;5039987;28;20416;-83
2023/10/10 12:18:34;;;;;;;29.10;17.58;;;21.10;99.90;;;;;;5041827;28;20404;-82
2023/10/10 12:21:10;;;;;;;33.72;17.30;;;21.20;99.90;;;;;;5046066;28;20065;-81
2023/10/10 12:23:36;;;;;;;25.02;17.20;;;21.30;99.90;;;;;;5035754;28;20095;-82
2023/10/10 12:26:03;;;;;;;32.78;19.63;;;21.50;99.90;;;;;;5046680;28;20080;-82
2023/10/10 12:28:28;;;;;;;31.73;18.15;;;21.70;99.90;;;;;;5044786;28;20709;-82
2023/10/10 12:31:00;;;;;;;30.17;18.85;;;21.90;99.90;;;;;;5042410;28;20081;-82
2023/10/10 12:33:27;;;;;;;28.55;18.50;;;22.00;99.90;;;;;;5057660;28;20385;-81
2023/10/10 12:35:53;;;;;;;29.50;18.70;;;22.00;99.90;;;;;;5059569;28;20124;-81
2023/10/10 12:38:22;;;;;;;26.63;17.77;;;22.00;99.90;;;;;;5046518;28;20124;-81
2023/10/10 12:40:49;;;;;;;30.35;18.35;;;22.00;99.90;;;;;;5060455;28;20404;-80
2023/10/10 12:43:15;;;;;;;27.77;18.15;;;22.00;99.90;;;;;;5031147;28;20059;-80
2023/10/10 12:45:41;;;;;;;29.02;16.55;;;22.10;99.90;;;;;;5046415;28;20041;-80
2023/10/10 12:48:14;;;;;;;24.92;16.42;;;22.10;99.90;;;;;;5045532;28;20106;-78
2023/10/10 12:50:46;;;;;;;27.13;16.75;;;22.10;99.90;;;;;;5044986;28;20053;-81
2023/10/10 12:53:19;;;;;;;25.38;15.75;;;22.10;99.90;;;;;;5042477;28;20052;-80
2023/10/10 12:55:49;;;;;;;20.77;14.73;;;22.00;99.90;;;;;;5045641;28;20044;-80
2023/10/10 12:58:20;;;;;;;22.75;14.77;;;21.90;99.90;;;;;;5046871;28;20049;-75
2023/10/10 13:00:57;;;;;;;25.13;16.50;;;21.80;99.90;;;;;;5047487;28;20132;-82
2023/10/10 13:03:28;;;;;;;20.90;15.18;;;21.70;99.90;;;;;;5041928;28;20085;-79
2023/10/10 13:05:58;;;;;;;25.83;15.57;;;21.70;99.90;;;;;;5046247;28;20053;-79
2023/10/10 13:08:25;;;;;;;26.17;16.20;;;21.60;99.90;;;;;;5040036;28;20053;-79
2023/10/10 13:11:01;;;;;;;23.88;15.63;;;21.60;99.90;;;;;;5046480;28;20385;-82
2023/10/10 13:13:27;;;;;;;21.33;15.15;;;21.60;99.90;;;;;;5040360;28;20077;-81
2023/10/10 13:16:22;;;;;;;23.85;15.30;;;21.60;99.90;;;;;;5046402;28;20081;-78
2023/10/10 13:18:51;;;;;;;23.25;14.13;;;21.50;99.90;;;;;;5039620;28;20046;-76
2023/10/10 13:21:20;;;;;;;21.90;15.70;;;21.40;99.90;;;;;;5037732;28;20053;-76
2023/10/10 13:23:50;;;;;;;27.17;15.90;;;21.40;99.90;;;;;;5053145;28;20045;-77
2023/10/10 13:26:17;;;;;;;24.70;15.88;;;21.50;99.90;;;;;;5051177;28;20106;-76
2023/10/10 13:28:46;;;;;;;22.40;14.98;;;21.50;99.90;;;;;;5053140;28;20404;-76
2023/10/10 13:31:13;;;;;;;23.27;15.20;;;21.50;99.90;;;;;;5052261;28;20548;-76
2023/10/10 13:33:39;;;;;;;28.08;14.90;;;21.40;99.90;;;;;;5048405;28;20053;-77
2023/10/10 13:36:06;;;;;;;23.58;15.27;;;21.30;99.90;;;;;;5053667;28;20393;-72
2023/10/10 13:38:32;;;;;;;23.65;15.23;;;21.30;99.90;;;;;;5052236;28;20664;-82
2023/10/10 13:41:01;;;;;;;21.70;14.38;;;21.20;99.90;;;;;;5051000;28;20067;-71
2023/10/10 13:43:27;;;;;;;22.38;14.63;;;21.20;99.90;;;;;;5045751;28;20127;-71
2023/10/10 13:45:57;;;;;;;21.80;14.50;;;21.10;99.90;;;;;;5052853;28;20219;-72
2023/10/10 13:48:24;;;;;;;22.60;14.25;;;21.10;99.90;;;;;;5051850;28;20064;-72
2023/10/10 13:50:56;;;;;;;18.88;13.13;;;21.10;99.90;;;;;;5050837;28;20041;-72
2023/10/10 13:53:21;;;;;;;23.90;14.45;;;21.00;99.90;;;;;;5048041;28;20504;-72
2023/10/10 13:55:47;;;;;;;25.05;14.80;;;21.00;99.90;;;;;;5050039;28;20054;-71
2023/10/10 13:58:14;;;;;;;21.98;14.55;;;21.00;99.90;;;;;;5039224;28;20040;-78
2023/10/10 14:00:42;;;;;;;24.92;14.30;;;21.00;99.90;;;;;;5053327;28;20044;-77
2023/10/10 14:03:08;;;;;;;25.15;14.07;;;21.00;99.90;;;;;;5052794;28;20048;-77
2023/10/10 14:05:37;;;;;;;24.67;13.95;;;21.00;99.90;;;;;;5051807;28;20041;-78
2023/10/10 14:08:07;;;;;;;19.10;12.05;;;21.10;99.90;;;;;;5049077;28;20049;-77
2023/10/10 14:10:40;;;;;;;19.60;12.88;;;21.10;99.90;;;;;;5041748;28;20045;-77
2023/10/10 14:13:40;;;;;;;25.88;15.20;;;21.10;99.90;;;;;;5041759;28;20052;-77
2023/10/10 14:15:59;;;;;;;25.77;15.30;;;21.10;99.90;;;;;;5044095;28;20057;-77
2023/10/10 14:18:26;;;;;;;26.65;16.13;;;21.10;99.90;;;;;;5044722;28;20124;-78
2023/10/10 14:20:53;;;;;;;27.88;16.08;;;21.00;99.90;;;;;;5051155;28;20543;-79
2023/10/10 14:23:24;;;;;;;25.98;15.50;;;20.90;99.90;;;;;;5049048;28;20443;-78
2023/10/10 14:25:50;;;;;;;26.70;16.35;;;20.80;99.90;;;;;;5042928;28;20045;-79
2023/10/10 14:28:18;;;;;;;23.75;16.15;;;20.80;99.90;;;;;;5033154;28;20052;-79
2023/10/10 14:30:49;;;;;;;27.48;16.52;;;20.80;99.90;;;;;;5039385;28;20040;-79
2023/10/10 14:33:16;;;;;;;25.48;17.77;;;20.70;99.90;;;;;;5036814;28;20090;-81
2023/10/10 14:35:43;;;;;;;30.00;18.20;;;20.70;99.90;;;;;;5044336;28;20048;-81
2023/10/10 14:38:16;;;;;;;27.67;17.15;;;20.60;99.90;;;;;;5051006;28;20057;-81
2023/10/10 14:40:45;;;;;;;24.83;17.58;;;20.60;99.90;;;;;;5042011;28;20496;-81
2023/10/10 14:43:11;;;;;;;28.00;17.92;;;20.60;99.90;;;;;;5046742;28;20493;-81
2023/10/10 14:45:44;;;;;;;25.10;17.52;;;20.50;99.90;;;;;;5046030;28;20548;-81
2023/10/10 14:48:11;;;;;;;25.85;16.98;;;20.50;99.90;;;;;;5047267;28;20488;-81
2023/10/10 14:50:41;;;;;;;26.58;16.58;;;20.40;99.90;;;;;;5038461;28;20047;-81
2023/10/10 14:53:09;;;;;;;30.27;18.23;;;20.50;99.90;;;;;;5058487;28;20080;-81
2023/10/10 14:55:44;;;;;;;26.17;17.25;;;20.40;99.90;;;;;;5045556;28;20825;-82
2023/10/10 14:58:13;;;;;;;25.23;16.98;;;20.40;99.90;;;;;;5048945;28;20080;-82
2023/10/10 15:00:41;;;;;;;29.83;17.67;;;20.40;99.90;;;;;;5040476;28;20045;-82
2023/10/10 15:03:15;;;;;;;27.60;16.67;;;20.40;99.90;;;;;;5048807;28;20055;-82
2023/10/10 15:05:51;;;;;;;25.25;16.45;;;20.30;99.90;;;;;;5047360;28;20047;-83
2023/10/10 15:08:19;;;;;;;26.02;16.60;;;20.30;99.90;;;;;;5051529;28;20091;-82
2023/10/10 15:10:46;;;;;;;24.25;16.17;;;20.30;99.90;;;;;;5048717;28;20037;-82
2023/10/10 15:13:15;;;;;;;28.67;16.60;;;20.20;99.90;;;;;;5041635;28;20044;-82
2023/10/10 15:15:45;;;;;;;26.52;16.60;;;20.20;99.90;;;;;;5050327;28;20098;-82
2023/10/10 15:18:15;;;;;;;26.73;16.33;;;20.20;99.90;;;;;;5046950;28;20136;-82
2023/10/10 15:20:46;;;;;;;27.60;16.25;;;20.20;99.90;;;;;;5046683;28;20053;-82
2023/10/10 15:23:20;;;;;;;27.15;15.68;;;20.20;99.90;;;;;;5046107;28;20083;-82
2023/10/10 15:25:53;;;;;;;23.77;15.10;;;20.10;99.90;;;;;;5045549;28;20060;-82
2023/10/10 15:28:20;;;;;;;21.87;15.87;;;20.10;99.90;;;;;;5046784;28;20133;-83
2023/10/10 15:30:46;;;;;;;25.75;15.23;;;20.00;99.90;;;;;;5044539;28;20045;-82
2023/10/10 15:33:17;;;;;;;24.48;15.45;;;19.90;99.90;;;;;;5044509;28;20560;-83
2023/10/10 15:35:46;;;;;;;22.92;15.35;;;19.90;99.90;;;;;;5048233;28;20057;-81
2023/10/10 15:38:12;;;;;;;23.92;15.27;;;19.90;99.90;;;;;;5042909;28;20040;-80
2023/10/10 15:40:43;;;;;;;25.05;16.13;;;19.90;99.90;;;;;;5050182;28;20055;-83
2023/10/10 15:43:12;;;;;;;26.65;15.07;;;19.90;99.90;;;;;;5050403;28;20103;-83
2023/10/10 15:45:42;;;;;;;23.52;15.68;;;19.80;99.90;;;;;;5035224;28;20088;-81
2023/10/10 15:48:24;;;;;;;25.38;16.08;;;19.80;99.90;;;;;;5049917;28;20131;-82
2023/10/10 15:50:57;;;;;;;22.08;15.82;;;19.70;99.90;;;;;;5050330;28;20151;-82
2023/10/10 15:53:25;;;;;;;22.75;15.38;;;19.70;99.90;;;;;;5051077;28;20045;-80
2023/10/10 15:58:42;;;;;;;26.58;16.00;;;19.60;99.90;;;;;;5031108;28;20135;-81
2023/10/10 16:01:14;;;;;;;23.17;15.40;;;19.60;99.90;;;;;;5046591;28;20136;-80
2023/10/10 16:03:47;;;;;;;24.25;15.00;;;19.50;99.90;;;;;;5049489;28;20041;-80
2023/10/10 16:06:14;;;;;;;22.00;15.35;;;19.50;99.90;;;;;;5050282;28;20067;-80
2023/10/10 16:08:40;;;;;;;20.65;14.65;;;19.50;99.90;;;;;;5049912;28;20084;-80